createdAt,value
2023-04-18T00:00:53.201Z,32.67
2023-04-18T00:03:30.851Z,33.35
2023-04-18T00:06:07.819Z,30.77
2023-04-18T00:08:45.887Z,33.83
2023-04-18T00:11:23.648Z,35.85
2023-04-18T00:14:03.674Z,32.80
2023-04-18T00:16:42.828Z,30.17
2023-04-18T00:19:19.627Z,33.05
2023-04-18T00:22:00.941Z,29.75
2023-04-18T00:24:40.176Z,30.75
2023-04-18T00:27:16.978Z,33.95
2023-04-18T00:29:52.843Z,35.05
2023-04-18T00:32:29.294Z,30.90
2023-04-18T00:35:08.509Z,34.30
2023-04-18T00:37:45.801Z,35.70
2023-04-18T00:40:28.171Z,37.20
2023-04-18T00:43:03.961Z,31.45
2023-04-18T00:45:39.228Z,34.92
2023-04-18T00:48:17.235Z,35.07
2023-04-18T00:50:53.610Z,35.15
2023-04-18T00:53:32.018Z,34.70
2023-04-18T00:56:14.072Z,35.80
2023-04-18T00:58:50.285Z,31.52
2023-04-18T01:01:31.242Z,33.15
2023-04-18T01:04:08.788Z,31.70
2023-04-18T01:06:46.263Z,31.02
2023-04-18T01:09:22.434Z,34.65
2023-04-18T01:12:01.117Z,35.05
2023-04-18T01:14:37.253Z,32.65
2023-04-18T01:19:51.470Z,30.90
2023-04-18T01:22:29.603Z,33.83
2023-04-18T01:25:20.251Z,30.88
2023-04-18T01:27:54.225Z,34.80
2023-04-18T01:30:31.184Z,32.67
2023-04-18T01:33:07.340Z,34.25
2023-04-18T01:35:45.667Z,32.80
2023-04-18T01:38:27.587Z,36.92
2023-04-18T01:41:09.801Z,31.35
2023-04-18T01:43:48.118Z,35.95
2023-04-18T01:46:26.410Z,31.35
2023-04-18T01:49:06.495Z,30.70
2023-04-18T01:51:43.526Z,31.30
2023-04-18T01:54:25.997Z,36.15
2023-04-18T01:57:06.443Z,28.10
2023-04-18T01:59:42.583Z,34.38
2023-04-18T02:02:22.045Z,34.40
2023-04-18T02:05:00.426Z,30.03
2023-04-18T02:07:34.706Z,31.60
2023-04-18T02:10:13.683Z,34.10
2023-04-18T02:12:57.085Z,34.80
2023-04-18T02:15:37.099Z,29.55
2023-04-18T02:18:17.844Z,29.10
2023-04-18T02:20:54.909Z,32.40
2023-04-18T02:23:34.060Z,30.23
2023-04-18T02:26:11.330Z,29.45
2023-04-18T02:28:45.561Z,27.85
2023-04-18T02:31:29.633Z,30.38
2023-04-18T02:34:04.219Z,26.30
2023-04-18T02:36:43.576Z,25.70
2023-04-18T02:39:19.398Z,27.15
2023-04-18T02:41:57.947Z,30.60
2023-04-18T02:44:35.064Z,29.35
2023-04-18T02:47:14.771Z,31.15
2023-04-18T02:49:54.378Z,29.20
2023-04-18T02:52:30.848Z,28.90
2023-04-18T02:55:08.819Z,31.85
2023-04-18T02:57:50.102Z,30.20
2023-04-18T03:00:44.416Z,27.98
2023-04-18T03:03:32.294Z,25.70
2023-04-18T03:06:27.828Z,26.35
2023-04-18T03:09:07.789Z,28.85
2023-04-18T03:11:45.754Z,34.10
2023-04-18T03:14:23.054Z,29.30
2023-04-18T03:17:04.894Z,32.50
2023-04-18T03:19:50.401Z,29.27
2023-04-18T03:22:31.940Z,26.20
2023-04-18T03:25:11.908Z,26.33
2023-04-18T03:28:00.622Z,26.65
2023-04-18T03:30:39.625Z,28.90
2023-04-18T03:33:18.607Z,27.50
2023-04-18T03:35:56.868Z,27.00
2023-04-18T03:38:35.655Z,27.00
2023-04-18T03:41:11.591Z,29.52
2023-04-18T03:43:48.069Z,31.08
2023-04-18T03:49:03.785Z,30.30
2023-04-18T03:51:48.086Z,30.38
2023-04-18T03:54:28.604Z,32.17
2023-04-18T03:57:04.531Z,29.27
2023-04-18T03:59:43.268Z,33.42
2023-04-18T04:04:54.419Z,45.15
2023-04-18T04:07:34.462Z,43.00
2023-04-18T04:10:18.051Z,40.92
2023-04-18T04:12:54.517Z,34.05
2023-04-18T04:15:33.959Z,38.03
2023-04-18T04:18:19.523Z,31.95
2023-04-18T04:20:56.663Z,35.13
2023-04-18T04:23:52.630Z,35.45
2023-04-18T04:26:44.718Z,34.58
2023-04-18T04:29:32.336Z,35.38
2023-04-18T04:32:09.459Z,37.33
2023-04-18T04:34:48.836Z,36.35
2023-04-18T04:37:24.225Z,36.40
2023-04-18T04:40:16.698Z,35.20
2023-04-18T04:43:14.391Z,38.58
2023-04-18T04:45:57.835Z,34.60
2023-04-18T04:48:35.310Z,34.40
2023-04-18T04:51:11.461Z,36.40
2023-04-18T04:53:48.521Z,36.03
2023-04-18T04:56:19.338Z,34.05
2023-04-18T04:58:57.548Z,35.45
2023-04-18T05:01:42.770Z,31.85
2023-04-18T05:04:21.138Z,34.55
2023-04-18T05:06:58.296Z,33.35
2023-04-18T05:09:36.160Z,31.05
2023-04-18T05:12:14.918Z,34.20
2023-04-18T05:14:52.347Z,33.20
2023-04-18T05:17:31.552Z,32.03
2023-04-18T05:20:10.632Z,34.65
2023-04-18T05:22:52.106Z,33.45
2023-04-18T05:25:38.355Z,34.20
2023-04-18T05:28:15.912Z,33.25
2023-04-18T05:31:01.568Z,32.72
2023-04-18T05:33:43.068Z,33.13
2023-04-18T05:36:17.654Z,36.65
2023-04-18T05:38:54.405Z,32.20
2023-04-18T05:41:31.490Z,32.40
2023-04-18T05:44:09.449Z,32.53
2023-04-18T05:46:47.627Z,33.58
2023-04-18T05:49:27.414Z,33.42
2023-04-18T05:52:08.411Z,38.25
2023-04-18T05:54:46.722Z,36.80
2023-04-18T05:57:22.667Z,36.60
2023-04-18T05:59:59.281Z,34.17
2023-04-18T06:02:35.598Z,34.70
2023-04-18T06:05:13.426Z,36.15
2023-04-18T06:07:51.909Z,37.47
2023-04-18T06:10:31.340Z,35.20
2023-04-18T06:13:05.882Z,35.08
2023-04-18T06:15:41.743Z,34.67
2023-04-18T06:18:18.953Z,32.10
2023-04-18T06:20:53.806Z,30.15
2023-04-18T06:23:34.631Z,35.00
2023-04-18T06:26:10.363Z,34.30
2023-04-18T06:28:50.725Z,35.05
2023-04-18T06:31:28.135Z,34.90
2023-04-18T06:34:06.200Z,33.33
2023-04-18T06:36:43.524Z,33.00
2023-04-18T06:39:25.086Z,35.20
2023-04-18T06:42:02.777Z,35.10
2023-04-18T06:44:41.104Z,34.45
2023-04-18T06:47:19.830Z,34.78
2023-04-18T06:49:57.321Z,31.58
2023-04-18T06:52:35.880Z,32.80
2023-04-18T06:55:17.207Z,33.17
2023-04-18T06:57:54.128Z,33.10
2023-04-18T07:00:30.816Z,31.08
2023-04-18T07:03:11.334Z,31.10
2023-04-18T07:05:48.090Z,26.08
2023-04-18T07:08:24.292Z,30.13
2023-04-18T07:11:03.114Z,25.30
2023-04-18T07:13:39.549Z,26.42
2023-04-18T07:16:19.029Z,27.35
2023-04-18T07:18:55.825Z,26.40
2023-04-18T07:21:34.817Z,24.85
2023-04-18T07:24:13.175Z,27.93
2023-04-18T07:26:55.327Z,30.27
2023-04-18T07:29:34.485Z,31.10
2023-04-18T07:32:11.158Z,33.80
2023-04-18T07:34:49.172Z,34.15
2023-04-18T07:37:27.483Z,30.13
2023-04-18T07:40:06.285Z,27.40
2023-04-18T07:42:50.637Z,25.50
2023-04-18T07:45:27.459Z,28.40
2023-04-18T07:48:10.209Z,27.83
2023-04-18T07:50:46.329Z,27.20
2023-04-18T07:53:23.165Z,32.53
2023-04-18T07:56:00.909Z,27.30
2023-04-18T07:58:43.141Z,29.05
2023-04-18T08:01:21.724Z,23.20
2023-04-18T08:04:02.459Z,23.27
2023-04-18T08:06:39.809Z,28.98
2023-04-18T08:09:21.088Z,22.08
2023-04-18T08:12:00.121Z,19.70
2023-04-18T08:14:40.913Z,25.08
2023-04-18T08:17:19.999Z,21.73
2023-04-18T08:19:55.601Z,19.77
2023-04-18T08:22:33.277Z,27.63
2023-04-18T08:25:12.847Z,21.40
2023-04-18T08:27:57.211Z,22.30
2023-04-18T08:30:38.075Z,22.47
2023-04-18T08:33:14.589Z,21.20
2023-04-18T08:35:55.789Z,18.73
2023-04-18T08:38:31.974Z,21.73
2023-04-18T08:41:11.284Z,23.70
2023-04-18T08:43:48.416Z,21.33
2023-04-18T08:46:31.040Z,23.90
2023-04-18T08:49:09.662Z,22.30
2023-04-18T08:51:48.478Z,24.60
2023-04-18T08:54:27.306Z,22.43
2023-04-18T08:57:14.502Z,27.50
2023-04-18T08:59:54.569Z,25.40
2023-04-18T09:02:43.321Z,24.98
2023-04-18T09:05:20.868Z,25.37
2023-04-18T09:07:57.751Z,26.00
2023-04-18T09:10:35.711Z,25.55
2023-04-18T09:13:15.730Z,27.70
2023-04-18T09:16:03.036Z,24.65
2023-04-18T09:18:44.863Z,28.20
2023-04-18T09:21:28.076Z,27.88
2023-04-18T09:24:24.102Z,24.85
2023-04-18T09:27:02.096Z,29.80
2023-04-18T09:29:50.913Z,34.10
2023-04-18T09:32:31.319Z,29.50
2023-04-18T09:35:10.867Z,30.17
2023-04-18T09:37:46.933Z,34.08
2023-04-18T09:40:24.930Z,33.67
2023-04-18T09:43:00.109Z,30.40
2023-04-18T09:45:45.604Z,26.10
2023-04-18T09:48:27.878Z,27.40
2023-04-18T09:51:10.273Z,29.88
2023-04-18T09:53:53.579Z,32.28
2023-04-18T09:56:29.658Z,26.27
2023-04-18T09:59:07.898Z,22.50
2023-04-18T10:01:48.827Z,27.60
2023-04-18T10:04:26.890Z,26.45
2023-04-18T10:07:08.804Z,29.63
2023-04-18T10:09:46.524Z,27.35
2023-04-18T10:12:24.150Z,24.95
2023-04-18T10:15:07.808Z,25.77
2023-04-18T10:18:05.101Z,29.58
2023-04-18T10:20:42.633Z,27.23
2023-04-18T10:23:56.726Z,27.92
2023-04-18T10:26:54.373Z,24.85
2023-04-18T10:29:53.131Z,22.05
2023-04-18T10:32:31.574Z,24.52
2023-04-18T10:35:11.385Z,28.02
2023-04-18T10:37:54.036Z,25.10
2023-04-18T10:40:39.478Z,24.40
2023-04-18T10:43:16.307Z,29.38
2023-04-18T10:46:31.158Z,27.30
2023-04-18T10:49:21.319Z,26.75
2023-04-18T10:57:15.769Z,27.67
2023-04-18T10:59:49.675Z,27.40
2023-04-18T11:02:34.089Z,28.58
2023-04-18T11:05:11.792Z,28.00
2023-04-18T11:07:49.303Z,22.85
2023-04-18T11:10:26.887Z,26.80
2023-04-18T11:13:05.934Z,23.13
2023-04-18T11:15:42.509Z,28.65
2023-04-18T11:18:22.163Z,26.98
2023-04-18T11:20:59.353Z,28.27
2023-04-18T11:23:35.831Z,26.17
2023-04-18T11:26:18.267Z,27.93
2023-04-18T11:28:57.750Z,29.55
2023-04-18T11:31:36.872Z,31.40
2023-04-18T11:34:16.904Z,31.77
2023-04-18T11:36:56.931Z,37.70
2023-04-18T11:39:35.763Z,33.03
2023-04-18T11:42:17.646Z,42.15
2023-04-18T11:44:54.084Z,31.67
2023-04-18T11:47:32.072Z,36.15
2023-04-18T11:50:07.235Z,40.15
2023-04-18T11:52:46.501Z,37.13
2023-04-18T11:55:24.988Z,30.85
2023-04-18T11:58:01.691Z,36.75
2023-04-18T12:06:03.512Z,35.43
2023-04-18T12:08:48.508Z,35.28
2023-04-18T12:11:25.733Z,34.60
2023-04-18T12:14:04.025Z,32.80
2023-04-18T12:16:40.681Z,31.63
2023-04-18T12:19:18.467Z,35.55
2023-04-18T12:22:02.954Z,38.75
2023-04-18T12:24:42.858Z,31.90
2023-04-18T12:27:20.874Z,28.75
2023-04-18T12:30:00.058Z,27.92
2023-04-18T12:32:39.395Z,29.85
2023-04-18T12:35:17.508Z,36.80
2023-04-18T12:37:55.783Z,43.45
2023-04-18T12:40:36.863Z,38.80
2023-04-18T12:43:14.488Z,35.72
2023-04-18T12:45:52.485Z,38.00
2023-04-18T12:48:32.004Z,41.85
2023-04-18T12:51:08.935Z,37.47
2023-04-18T12:53:46.935Z,36.97
2023-04-18T12:56:29.900Z,34.33
2023-04-18T12:59:07.077Z,32.65
2023-04-18T13:01:44.326Z,38.05
2023-04-18T13:04:22.319Z,35.60
2023-04-18T13:06:58.458Z,40.03
2023-04-18T13:12:17.403Z,31.63
2023-04-18T13:14:54.203Z,35.55
2023-04-18T13:17:35.394Z,39.30
2023-04-18T13:20:16.078Z,37.38
2023-04-18T13:22:53.846Z,36.03
2023-04-18T13:25:32.087Z,38.70
2023-04-18T13:28:14.911Z,36.35
2023-04-18T13:30:54.857Z,35.22
2023-04-18T13:33:33.675Z,37.00
2023-04-18T13:36:19.389Z,31.92
2023-04-18T13:39:06.870Z,33.35
2023-04-18T13:41:47.418Z,35.05
2023-04-18T13:44:31.195Z,36.95
2023-04-18T13:47:09.084Z,34.15
2023-04-18T13:49:46.411Z,32.28
2023-04-18T13:52:23.762Z,34.25
2023-04-18T13:55:08.460Z,37.35
2023-04-18T13:57:44.737Z,28.92
2023-04-18T14:00:30.961Z,33.45
2023-04-18T14:03:12.675Z,30.38
2023-04-18T14:06:01.173Z,27.95
2023-04-18T14:11:41.794Z,24.60
2023-04-18T14:14:23.848Z,27.92
2023-04-18T14:17:15.156Z,38.00
2023-04-18T14:20:12.857Z,30.85
2023-04-18T14:22:52.919Z,33.65
2023-04-18T14:25:31.730Z,36.65
2023-04-18T14:28:13.993Z,25.75
2023-04-18T14:30:53.496Z,25.65
2023-04-18T14:33:43.671Z,26.20
2023-04-18T14:36:23.288Z,26.17
2023-04-18T14:39:02.686Z,25.80
2023-04-18T14:41:40.171Z,35.28
2023-04-18T14:44:19.060Z,34.03
2023-04-18T14:46:59.036Z,36.28
2023-04-18T14:49:48.853Z,44.95
2023-04-18T14:52:28.975Z,39.15
2023-04-18T14:55:07.853Z,23.08
2023-04-18T14:57:46.888Z,24.30
2023-04-18T15:00:26.091Z,25.85
2023-04-18T15:03:04.138Z,24.08
2023-04-18T15:05:49.616Z,21.77
2023-04-18T15:08:26.595Z,24.70
2023-04-18T15:11:05.788Z,29.27
2023-04-18T15:13:42.359Z,24.65
2023-04-18T15:16:18.763Z,26.02
2023-04-18T15:19:00.939Z,29.45
2023-04-18T15:21:39.499Z,24.60
2023-04-18T15:24:17.977Z,40.10
2023-04-18T15:26:53.351Z,41.13
2023-04-18T15:29:30.887Z,37.33
2023-04-18T15:32:08.252Z,40.05
2023-04-18T15:34:46.269Z,27.52
2023-04-18T15:37:27.278Z,25.60
2023-04-18T15:40:08.602Z,26.17
2023-04-18T15:42:50.137Z,28.70
2023-04-18T15:45:28.569Z,24.55
2023-04-18T15:48:04.746Z,25.00
2023-04-18T15:50:43.481Z,23.80
2023-04-18T15:53:26.442Z,28.00
2023-04-18T15:56:09.407Z,28.95
2023-04-18T15:58:48.677Z,27.70
2023-04-18T16:17:19.061Z,31.17
2023-04-18T16:19:59.119Z,34.57
2023-04-18T16:22:38.472Z,32.72
2023-04-18T16:25:15.279Z,51.05
2023-04-18T16:27:52.708Z,41.20
2023-04-18T16:30:31.154Z,33.33
2023-04-18T16:33:26.314Z,32.00
2023-04-18T16:36:06.333Z,29.92
2023-04-18T16:38:44.472Z,29.45
2023-04-18T16:41:21.929Z,36.58
2023-04-18T16:44:01.085Z,30.90
2023-04-18T16:46:39.546Z,34.53
2023-04-18T16:49:21.186Z,29.65
2023-04-18T16:51:58.202Z,29.08
2023-04-18T16:54:37.411Z,28.25
2023-04-18T16:57:18.567Z,28.55
2023-04-18T16:59:56.776Z,26.58
2023-04-18T17:02:35.304Z,32.38
2023-04-18T17:05:20.389Z,31.15
2023-04-18T17:08:04.273Z,33.33
2023-04-18T17:10:42.176Z,36.15
2023-04-18T17:13:27.597Z,32.57
2023-04-18T17:16:07.162Z,35.38
2023-04-18T17:18:41.923Z,34.17
2023-04-18T17:21:26.240Z,33.70
2023-04-18T17:24:07.638Z,42.75
2023-04-18T17:26:48.639Z,63.70
2023-04-18T17:29:28.391Z,66.13
2023-04-18T17:32:05.580Z,54.55
2023-04-18T17:34:46.325Z,47.13
2023-04-18T17:37:27.439Z,37.33
2023-04-18T17:40:12.910Z,34.75
2023-04-18T17:42:59.251Z,28.97
2023-04-18T17:45:42.859Z,31.95
2023-04-18T17:48:22.887Z,31.13
2023-04-18T17:51:12.677Z,33.25
2023-04-18T17:54:00.621Z,31.55
2023-04-18T17:59:47.373Z,29.70
2023-04-18T18:24:27.497Z,28.60
2023-04-18T18:27:07.657Z,28.83
2023-04-18T18:29:46.281Z,32.85
2023-04-18T18:32:25.468Z,31.10
2023-04-18T18:35:07.051Z,33.25
2023-04-18T18:37:42.444Z,37.10
2023-04-18T18:40:24.642Z,34.47
2023-04-18T18:43:02.252Z,32.75
2023-04-18T18:45:42.263Z,34.40
2023-04-18T18:48:21.533Z,29.05
2023-04-18T18:51:00.206Z,29.63
2023-04-18T18:53:40.115Z,30.35
2023-04-18T18:56:21.248Z,28.60
2023-04-18T18:58:58.821Z,29.33
2023-04-18T19:01:36.872Z,28.83
2023-04-18T19:04:28.910Z,33.70
2023-04-18T19:16:38.737Z,31.23
2023-04-18T19:19:18.066Z,33.05
2023-04-18T19:21:55.311Z,28.40
2023-04-18T19:24:35.681Z,28.75
2023-04-18T19:27:18.408Z,29.92
2023-04-18T19:29:58.328Z,30.90
2023-04-18T19:32:50.836Z,29.52
2023-04-18T19:35:32.754Z,32.50
2023-04-18T19:38:11.330Z,35.03
2023-04-18T19:40:53.288Z,29.10
2023-04-18T19:43:28.069Z,29.27
2023-04-18T19:46:11.203Z,26.88
2023-04-18T19:48:50.482Z,30.52
2023-04-18T19:54:36.674Z,29.73
2023-04-18T19:57:19.696Z,29.85
2023-04-18T20:00:03.059Z,36.10
2023-04-18T20:02:52.398Z,31.02
2023-04-18T20:05:29.266Z,33.45
2023-04-18T20:08:10.250Z,33.10
2023-04-18T20:10:58.051Z,31.80
2023-04-18T20:13:43.587Z,32.50
2023-04-18T20:16:32.161Z,29.75
2023-04-18T20:22:09.823Z,23.77
2023-04-18T20:24:50.361Z,29.25
2023-04-18T20:27:36.289Z,26.45
2023-04-18T20:30:17.705Z,25.10
2023-04-18T20:32:55.645Z,28.73
2023-04-18T20:35:30.904Z,25.15
2023-04-18T20:38:14.796Z,27.08
2023-04-18T20:40:52.922Z,25.48
2023-04-18T20:43:37.719Z,26.00
2023-04-18T20:46:18.951Z,24.90
2023-04-18T20:49:00.935Z,27.83
2023-04-18T20:51:43.197Z,25.85
2023-04-18T20:54:25.011Z,27.33
2023-04-18T20:57:04.172Z,24.90
2023-04-18T20:59:44.735Z,28.15
2023-04-18T21:03:03.052Z,25.20
2023-04-18T21:05:57.175Z,24.92
2023-04-18T21:08:48.338Z,27.87
2023-04-18T21:11:33.048Z,24.98
2023-04-18T21:17:13.048Z,30.90
2023-04-18T21:20:03.899Z,25.15
2023-04-18T21:22:44.902Z,26.70
2023-04-18T21:25:29.240Z,31.08
2023-04-18T21:28:07.158Z,33.10
2023-04-18T21:30:46.691Z,30.50
2023-04-18T21:33:34.017Z,28.00
2023-04-18T21:36:20.389Z,27.95
2023-04-18T21:38:57.743Z,26.65
2023-04-18T21:41:35.812Z,28.65
2023-04-18T21:44:16.064Z,28.20
2023-04-18T21:46:54.965Z,26.30
2023-04-18T21:49:34.637Z,26.55
2023-04-18T21:52:17.873Z,22.95
2023-04-18T21:54:54.707Z,25.75
2023-04-18T21:57:30.790Z,24.73
2023-04-18T22:02:50.948Z,26.70
2023-04-18T22:05:37.627Z,26.07
2023-04-18T22:08:16.075Z,24.10
2023-04-18T22:10:59.610Z,26.83
2023-04-18T22:13:35.539Z,25.65
2023-04-18T22:16:15.159Z,27.73
2023-04-18T22:18:53.651Z,23.65
2023-04-18T22:21:28.823Z,26.52
2023-04-18T22:24:10.873Z,26.03
2023-04-18T22:26:56.704Z,25.13
2023-04-18T22:29:44.467Z,23.67
2023-04-18T22:32:22.202Z,91.00
2023-04-18T22:34:58.667Z,65.25
2023-04-18T22:37:37.112Z,31.47
2023-04-18T22:40:18.869Z,25.98
2023-04-18T22:43:00.971Z,27.13
2023-04-18T22:45:54.529Z,24.23
2023-04-18T22:48:32.391Z,24.05
2023-04-18T22:51:13.987Z,24.60
2023-04-18T22:53:50.666Z,24.50
2023-04-18T22:56:30.461Z,24.10
2023-04-18T22:59:09.084Z,23.60
2023-04-18T23:01:51.536Z,23.25
2023-04-18T23:04:30.447Z,23.15
2023-04-18T23:07:09.999Z,25.03
2023-04-18T23:09:47.858Z,23.60
2023-04-18T23:12:34.667Z,22.40
2023-04-18T23:15:17.127Z,27.07
2023-04-18T23:18:01.644Z,28.20
2023-04-18T23:20:39.868Z,23.70
2023-04-18T23:23:17.658Z,25.67
2023-04-18T23:26:02.130Z,24.80
2023-04-18T23:28:38.352Z,23.73
2023-04-18T23:31:24.093Z,22.85
2023-04-18T23:34:08.645Z,22.70
2023-04-18T23:36:53.937Z,25.25
2023-04-18T23:39:30.746Z,20.93
2023-04-18T23:42:11.252Z,22.80
2023-04-18T23:44:50.431Z,25.50
2023-04-18T23:47:28.204Z,21.05
2023-04-18T23:50:17.477Z,26.45
2023-04-18T23:52:52.633Z,19.40
2023-04-18T23:55:34.857Z,20.87
2023-04-18T23:58:12.129Z,19.98
